createdAt,value
2022-11-11T00:01:38.231Z,2.10
2022-11-11T00:04:24.283Z,1.90
2022-11-11T00:07:10.205Z,1.80
2022-11-11T00:09:56.291Z,1.60
2022-11-11T00:12:42.053Z,1.77
2022-11-11T00:15:29.535Z,2.05
2022-11-11T00:18:34.069Z,1.83
2022-11-11T00:21:38.665Z,1.85
2022-11-11T00:24:48.621Z,2.10
2022-11-11T00:27:36.028Z,1.33
2022-11-11T00:30:22.122Z,1.85
2022-11-11T00:33:08.460Z,1.40
2022-11-11T00:35:54.969Z,1.70
2022-11-11T00:38:46.938Z,1.90
2022-11-11T00:41:32.703Z,1.80
2022-11-11T00:44:18.727Z,1.73
2022-11-11T00:47:23.471Z,1.92
2022-11-11T00:50:48.337Z,1.83
2022-11-11T00:53:35.528Z,1.67
2022-11-11T00:56:23.071Z,2.00
2022-11-11T00:59:09.689Z,2.03
2022-11-11T01:01:55.958Z,1.58
2022-11-11T01:04:42.090Z,2.10
2022-11-11T01:07:28.448Z,1.80
2022-11-11T01:10:34.682Z,1.80
2022-11-11T01:13:22.386Z,1.83
2022-11-11T01:16:12.663Z,1.42
2022-11-11T01:18:58.797Z,1.70
2022-11-11T01:21:44.933Z,2.05
2022-11-11T01:24:31.387Z,2.13
2022-11-11T01:27:17.548Z,1.80
2022-11-11T01:30:03.939Z,1.67
2022-11-11T01:32:49.683Z,1.60
2022-11-11T01:35:39.366Z,1.38
2022-11-11T01:38:26.111Z,1.60
2022-11-11T01:41:33.961Z,1.40
2022-11-11T01:44:47.800Z,1.58
2022-11-11T01:48:22.118Z,1.52
2022-11-11T01:51:05.527Z,1.70
2022-11-11T01:53:58.155Z,1.08
2022-11-11T01:56:50.148Z,1.58
2022-11-11T01:59:40.228Z,1.38
2022-11-11T02:02:44.731Z,1.80
2022-11-11T02:05:43.891Z,1.65
2022-11-11T02:08:36.819Z,1.73
2022-11-11T02:11:44.834Z,1.98
2022-11-11T02:14:36.951Z,1.60
2022-11-11T02:17:24.533Z,1.38
2022-11-11T02:20:15.651Z,2.15
2022-11-11T02:23:10.123Z,1.75
2022-11-11T02:25:57.519Z,1.25
2022-11-11T02:28:45.294Z,1.40
2022-11-11T02:31:32.736Z,1.65
2022-11-11T02:34:18.683Z,1.40
2022-11-11T02:37:08.304Z,1.65
2022-11-11T02:40:04.220Z,1.55
2022-11-11T02:42:51.072Z,1.60
2022-11-11T02:45:37.432Z,2.05
2022-11-11T02:48:24.994Z,1.50
2022-11-11T02:51:11.184Z,1.65
2022-11-11T02:53:59.228Z,1.83
2022-11-11T02:57:03.948Z,1.42
2022-11-11T02:59:49.814Z,2.20
2022-11-11T03:02:36.034Z,1.30
2022-11-11T03:05:22.587Z,1.67
2022-11-11T03:08:09.257Z,1.60
2022-11-11T03:10:55.190Z,1.63
2022-11-11T03:13:41.130Z,1.25
2022-11-11T03:16:47.201Z,1.45
2022-11-11T03:19:33.818Z,1.83
2022-11-11T03:22:53.729Z,1.35
2022-11-11T03:25:38.163Z,1.30
2022-11-11T03:28:26.000Z,1.40
2022-11-11T03:31:12.202Z,1.40
2022-11-11T03:34:18.495Z,1.30
2022-11-11T03:37:25.314Z,1.08
2022-11-11T03:40:12.185Z,1.13
2022-11-11T03:43:02.909Z,1.33
2022-11-11T03:45:54.858Z,1.10
2022-11-11T03:48:41.126Z,1.23
2022-11-11T03:51:27.136Z,1.60
2022-11-11T03:54:13.394Z,1.13
2022-11-11T03:57:18.441Z,1.23
2022-11-11T04:00:12.240Z,1.00
2022-11-11T04:03:30.829Z,1.27
2022-11-11T04:06:35.484Z,1.58
2022-11-11T04:09:40.144Z,1.10
2022-11-11T04:15:31.756Z,1.23
2022-11-11T04:21:38.970Z,1.00
2022-11-11T04:24:44.045Z,1.23
2022-11-11T04:27:30.323Z,0.90
2022-11-11T04:30:16.224Z,1.33
2022-11-11T04:33:02.262Z,1.40
2022-11-11T04:35:51.705Z,1.42
2022-11-11T04:38:56.554Z,1.20
2022-11-11T04:42:06.482Z,1.50
2022-11-11T04:45:07.064Z,1.08
2022-11-11T04:48:01.853Z,0.95
2022-11-11T04:50:47.704Z,0.77
2022-11-11T04:53:33.655Z,1.00
2022-11-11T04:56:38.170Z,1.40
2022-11-11T04:59:23.945Z,1.10
2022-11-11T05:02:28.666Z,1.00
2022-11-11T05:05:14.975Z,1.02
2022-11-11T05:08:19.866Z,1.25
2022-11-11T05:14:11.726Z,0.90
2022-11-11T05:17:17.489Z,0.80
2022-11-11T05:20:22.668Z,1.05
2022-11-11T05:23:08.956Z,1.20
2022-11-11T05:25:54.892Z,2.22
2022-11-11T05:28:41.185Z,4.78
2022-11-11T05:31:27.950Z,14.20
2022-11-11T05:34:13.857Z,9.18
2022-11-11T05:36:59.934Z,5.72
2022-11-11T05:39:45.835Z,4.57
2022-11-11T05:42:32.080Z,2.25
2022-11-11T05:45:18.419Z,1.60
2022-11-11T05:48:04.675Z,0.80
2022-11-11T05:50:50.514Z,0.80
2022-11-11T05:53:36.564Z,1.08
2022-11-11T05:56:22.441Z,0.80
2022-11-11T05:59:08.844Z,1.85
2022-11-11T06:01:54.774Z,1.50
2022-11-11T06:04:40.523Z,0.93
2022-11-11T06:07:26.657Z,1.27
2022-11-11T06:10:30.687Z,0.85
2022-11-11T06:13:16.662Z,0.80
2022-11-11T06:16:04.240Z,0.77
2022-11-11T06:18:51.481Z,2.00
2022-11-11T06:21:57.106Z,1.13
2022-11-11T06:24:43.159Z,0.75
2022-11-11T06:27:29.152Z,1.00
2022-11-11T06:33:22.547Z,1.13
2022-11-11T06:36:11.086Z,0.80
2022-11-11T06:38:57.415Z,1.08
2022-11-11T06:41:43.294Z,0.80
2022-11-11T06:44:29.327Z,1.10
2022-11-11T06:47:16.350Z,0.82
2022-11-11T06:50:02.509Z,0.70
2022-11-11T06:52:48.803Z,0.80
2022-11-11T06:55:35.494Z,0.80
2022-11-11T06:58:21.961Z,1.10
2022-11-11T07:01:09.851Z,1.30
2022-11-11T07:03:55.940Z,1.35
2022-11-11T07:06:42.188Z,2.47
2022-11-11T07:09:28.944Z,2.92
2022-11-11T07:12:15.474Z,3.75
2022-11-11T07:15:01.509Z,7.22
2022-11-11T07:17:47.672Z,4.78
2022-11-11T07:20:33.729Z,4.50
2022-11-11T07:23:19.733Z,3.97
2022-11-11T07:26:05.830Z,2.30
2022-11-11T07:28:52.094Z,3.88
2022-11-11T07:31:38.264Z,4.43
2022-11-11T07:34:24.283Z,2.33
2022-11-11T07:37:10.424Z,1.95
2022-11-11T07:39:56.445Z,1.00
2022-11-11T07:42:43.754Z,0.88
2022-11-11T07:45:29.884Z,0.70
2022-11-11T07:48:15.774Z,0.52
2022-11-11T07:51:01.783Z,0.75
2022-11-11T07:53:47.944Z,0.70
2022-11-11T07:56:33.945Z,0.70
2022-11-11T07:59:19.757Z,0.70
2022-11-11T08:02:05.785Z,0.85
2022-11-11T08:04:55.346Z,0.82
2022-11-11T08:07:42.837Z,0.85
2022-11-11T08:10:28.762Z,0.80
2022-11-11T08:13:33.264Z,1.13
2022-11-11T08:16:19.014Z,1.13
2022-11-11T08:19:04.966Z,1.30
2022-11-11T08:21:52.543Z,1.38
2022-11-11T08:27:46.344Z,2.17
2022-11-11T08:30:33.404Z,1.30
2022-11-11T08:33:32.721Z,1.30
2022-11-11T08:36:20.976Z,0.80
2022-11-11T08:39:08.146Z,0.95
2022-11-11T08:41:54.137Z,1.25
2022-11-11T08:44:40.101Z,0.98
2022-11-11T08:47:26.084Z,1.65
2022-11-11T08:50:12.441Z,0.95
2022-11-11T08:52:58.407Z,1.10
2022-11-11T08:55:44.781Z,1.52
2022-11-11T08:58:32.035Z,1.15
2022-11-11T09:01:18.050Z,1.05
2022-11-11T09:04:22.949Z,1.90
2022-11-11T09:07:11.582Z,1.65
2022-11-11T09:09:57.974Z,1.25
2022-11-11T09:12:43.901Z,1.75
2022-11-11T09:15:30.427Z,1.15
2022-11-11T09:18:16.972Z,0.90
2022-11-11T09:21:03.841Z,1.33
2022-11-11T09:23:50.115Z,1.40
2022-11-11T09:26:36.266Z,1.33
2022-11-11T09:29:22.307Z,1.40
2022-11-11T09:32:08.546Z,2.10
2022-11-11T09:34:57.380Z,0.95
2022-11-11T09:37:43.484Z,0.80
2022-11-11T09:40:58.673Z,0.70
2022-11-11T09:46:39.714Z,0.60
2022-11-11T09:49:34.714Z,0.75
2022-11-11T09:52:44.187Z,0.50
2022-11-11T09:56:01.795Z,0.70
2022-11-11T09:58:53.595Z,0.50
2022-11-11T10:01:51.479Z,0.70
2022-11-11T10:04:56.541Z,1.30
2022-11-11T10:07:54.058Z,1.42
2022-11-11T10:10:49.873Z,1.52
2022-11-11T10:13:38.072Z,2.63
2022-11-11T10:16:48.794Z,1.65
2022-11-11T10:19:53.355Z,1.40
2022-11-11T10:25:28.103Z,0.85
2022-11-11T10:28:19.268Z,0.60
2022-11-11T10:31:15.753Z,0.70
2022-11-11T10:34:12.776Z,1.20
2022-11-11T10:37:00.257Z,0.90
2022-11-11T10:40:17.350Z,1.13
2022-11-11T10:43:03.645Z,0.80
2022-11-11T10:45:54.613Z,0.88
2022-11-11T10:49:11.216Z,1.15
2022-11-11T10:52:10.598Z,0.75
2022-11-11T10:55:19.267Z,0.80
2022-11-11T10:58:28.074Z,0.60
2022-11-11T11:01:17.927Z,0.73
2022-11-11T11:04:09.643Z,0.70
2022-11-11T11:06:59.395Z,0.90
2022-11-11T11:09:52.581Z,0.70
2022-11-11T11:12:58.169Z,0.93
2022-11-11T11:15:49.436Z,0.80
2022-11-11T11:18:40.479Z,1.45
2022-11-11T11:22:08.362Z,0.85
2022-11-11T11:25:10.404Z,1.15
2022-11-11T11:28:12.339Z,1.00
2022-11-11T11:31:00.905Z,0.90
2022-11-11T11:33:51.160Z,0.70
2022-11-11T11:36:37.555Z,0.90
2022-11-11T11:39:35.184Z,0.82
2022-11-11T11:42:47.834Z,0.82
2022-11-11T11:45:33.910Z,0.80
2022-11-11T11:48:31.508Z,0.98
2022-11-11T11:51:17.933Z,2.60
2022-11-11T11:54:51.456Z,2.50
2022-11-11T11:57:52.792Z,3.63
2022-11-11T12:00:51.352Z,3.85
2022-11-11T12:03:58.626Z,3.72
2022-11-11T12:11:11.371Z,4.18
2022-11-11T12:14:10.088Z,3.70
2022-11-11T12:17:11.179Z,3.97
2022-11-11T12:20:15.057Z,3.83
2022-11-11T12:23:38.646Z,3.60
2022-11-11T12:26:48.338Z,3.08
2022-11-11T12:29:43.463Z,3.15
2022-11-11T12:33:06.949Z,3.47
2022-11-11T12:36:08.194Z,3.40
2022-11-11T12:39:03.077Z,3.28
2022-11-11T12:42:07.596Z,3.80
2022-11-11T12:45:22.414Z,3.08
2022-11-11T12:51:40.376Z,3.40
2022-11-11T12:54:58.966Z,3.95
2022-11-11T12:58:12.318Z,4.38
2022-11-11T13:01:20.620Z,5.57
2022-11-11T13:04:40.638Z,5.07
2022-11-11T13:07:34.075Z,3.95
2022-11-11T13:10:23.437Z,4.50
2022-11-11T13:13:28.069Z,4.28
2022-11-11T13:16:16.296Z,5.50
2022-11-11T13:19:13.591Z,5.28
2022-11-11T13:22:08.302Z,5.22
2022-11-11T13:24:58.837Z,5.20
2022-11-11T13:27:55.292Z,5.60
2022-11-11T13:31:01.875Z,5.82
2022-11-11T13:33:51.527Z,5.80
2022-11-11T13:36:51.407Z,5.55
2022-11-11T13:39:46.065Z,4.88
2022-11-11T13:42:40.348Z,3.58
2022-11-11T13:45:36.145Z,5.53
2022-11-11T13:48:39.767Z,5.40
2022-11-11T13:51:39.880Z,5.07
2022-11-11T13:54:36.637Z,5.30
2022-11-11T13:57:26.984Z,5.63
2022-11-11T14:00:36.757Z,5.28
2022-11-11T14:03:26.256Z,6.40
2022-11-11T14:06:15.509Z,7.60
2022-11-11T14:09:02.393Z,6.93
2022-11-11T14:11:48.491Z,6.63
2022-11-11T14:14:34.631Z,7.30
2022-11-11T14:17:21.236Z,5.78
2022-11-11T14:20:38.562Z,5.65
2022-11-11T14:23:35.981Z,6.38
2022-11-11T14:26:27.151Z,6.68
2022-11-11T14:29:20.935Z,5.88
2022-11-11T14:32:44.625Z,5.50
2022-11-11T14:35:40.716Z,5.40
2022-11-11T14:38:40.733Z,5.40
2022-11-11T14:41:45.635Z,5.30
2022-11-11T14:44:34.654Z,4.80
2022-11-11T14:47:42.286Z,5.97
2022-11-11T14:50:28.333Z,5.22
2022-11-11T14:53:31.322Z,5.55
2022-11-11T14:56:18.669Z,3.83
2022-11-11T14:59:11.320Z,5.47
2022-11-11T15:01:59.072Z,7.50
2022-11-11T15:04:47.103Z,6.80
2022-11-11T15:07:45.007Z,7.43
2022-11-11T15:10:43.636Z,7.82
2022-11-11T15:14:03.478Z,7.43
2022-11-11T15:17:08.774Z,6.85
2022-11-11T15:23:20.338Z,6.22
2022-11-11T15:26:30.106Z,6.45
2022-11-11T15:29:33.468Z,5.93
2022-11-11T15:32:30.649Z,6.55
2022-11-11T15:35:30.623Z,7.68
2022-11-11T15:38:19.775Z,6.90
2022-11-11T15:41:06.267Z,16.23
2022-11-11T15:43:53.127Z,10.85
2022-11-11T15:46:43.348Z,8.68
2022-11-11T15:49:38.739Z,8.60
2022-11-11T15:52:27.245Z,8.30
2022-11-11T15:55:28.241Z,8.00
2022-11-11T15:58:28.428Z,8.30
2022-11-11T16:01:16.358Z,7.88
2022-11-11T16:04:02.496Z,7.05
2022-11-11T16:06:49.361Z,7.20
2022-11-11T16:09:38.079Z,8.05
2022-11-11T16:12:35.998Z,7.82
2022-11-11T16:15:39.848Z,8.70
2022-11-11T16:18:34.698Z,8.45
2022-11-11T16:21:30.292Z,7.60
2022-11-11T16:24:34.117Z,7.95
2022-11-11T16:27:26.648Z,7.32
2022-11-11T16:30:39.268Z,7.72
2022-11-11T16:33:28.351Z,7.50
2022-11-11T16:36:14.320Z,6.80
2022-11-11T16:39:15.007Z,3.85
2022-11-11T16:42:05.511Z,5.15
2022-11-11T16:44:55.438Z,2.05
2022-11-11T16:47:44.179Z,1.95
2022-11-11T16:50:30.323Z,1.48
2022-11-11T16:53:33.821Z,1.55
2022-11-11T16:56:31.140Z,1.85
2022-11-11T16:59:37.039Z,1.20
2022-11-11T17:02:25.224Z,1.30
2022-11-11T17:05:11.668Z,1.25
2022-11-11T17:07:57.888Z,1.38
2022-11-11T17:10:43.777Z,1.60
2022-11-11T17:13:30.208Z,1.20
2022-11-11T17:16:16.518Z,9.73
2022-11-11T17:19:03.759Z,5.90
2022-11-11T17:21:49.699Z,1.20
2022-11-11T17:24:36.431Z,1.20
2022-11-11T17:27:22.798Z,0.95
2022-11-11T17:30:10.412Z,1.05
2022-11-11T17:32:56.677Z,3.47
2022-11-11T17:35:52.712Z,2.70
2022-11-11T17:38:38.915Z,2.08
2022-11-11T17:41:25.209Z,1.50
2022-11-11T17:44:11.077Z,7.80
2022-11-11T17:46:57.177Z,5.60
2022-11-11T17:49:56.233Z,5.82
2022-11-11T17:52:42.843Z,5.57
2022-11-11T17:55:29.228Z,6.55
2022-11-11T17:58:15.368Z,5.95
2022-11-11T18:01:09.539Z,5.10
2022-11-11T18:03:57.188Z,4.68
2022-11-11T18:06:43.665Z,1.92
2022-11-11T18:09:30.232Z,3.17
2022-11-11T18:12:16.437Z,9.90
2022-11-11T18:15:02.447Z,3.63
2022-11-11T18:17:48.293Z,2.15
2022-11-11T18:20:34.237Z,9.77
2022-11-11T18:23:20.567Z,6.50
2022-11-11T18:26:07.978Z,1.63
2022-11-11T18:28:54.047Z,1.80
2022-11-11T18:31:40.013Z,1.55
2022-11-11T18:34:26.698Z,1.98
2022-11-11T18:37:12.853Z,1.35
2022-11-11T18:39:58.901Z,1.80
2022-11-11T18:42:44.612Z,1.70
2022-11-11T18:45:30.755Z,2.67
2022-11-11T18:48:16.945Z,1.38
2022-11-11T18:51:03.656Z,1.70
2022-11-11T18:53:50.095Z,1.50
2022-11-11T18:56:37.911Z,1.70
2022-11-11T18:59:24.084Z,1.42
2022-11-11T19:02:10.215Z,1.40
2022-11-11T19:04:56.349Z,1.10
2022-11-11T19:07:42.254Z,1.15
2022-11-11T19:10:28.388Z,1.08
2022-11-11T19:13:14.706Z,1.40
2022-11-11T19:16:09.497Z,1.17
2022-11-11T19:18:56.605Z,1.13
2022-11-11T19:21:42.446Z,1.08
2022-11-11T19:24:33.538Z,1.23
2022-11-11T19:27:19.848Z,1.00
2022-11-11T19:30:06.296Z,0.95
2022-11-11T19:32:52.337Z,1.30
2022-11-11T19:35:38.462Z,1.08
2022-11-11T19:38:24.712Z,1.10
2022-11-11T19:41:13.926Z,1.50
2022-11-11T19:44:00.158Z,1.25
2022-11-11T19:46:46.475Z,1.13
2022-11-11T19:49:32.706Z,1.00
2022-11-11T19:52:18.772Z,1.13
2022-11-11T19:55:05.128Z,1.30
2022-11-11T19:57:51.123Z,1.67
2022-11-11T20:00:37.425Z,1.73
2022-11-11T20:03:24.385Z,1.92
2022-11-11T20:06:21.321Z,6.90
2022-11-11T20:09:08.809Z,10.05
2022-11-11T20:11:55.064Z,7.35
2022-11-11T20:14:40.882Z,2.80
2022-11-11T20:17:28.359Z,2.20
2022-11-11T20:20:14.469Z,2.88
2022-11-11T20:23:07.329Z,2.33
2022-11-11T20:25:54.866Z,2.20
2022-11-11T20:28:42.438Z,2.42
2022-11-11T20:31:28.887Z,2.33
2022-11-11T20:34:14.825Z,2.38
2022-11-11T20:37:01.208Z,2.22
2022-11-11T20:39:47.197Z,2.30
2022-11-11T20:42:33.237Z,2.35
2022-11-11T20:45:19.496Z,2.50
2022-11-11T20:48:09.570Z,2.92
2022-11-11T20:51:07.160Z,3.17
2022-11-11T20:53:55.077Z,3.05
2022-11-11T20:56:41.035Z,2.33
2022-11-11T20:59:26.852Z,2.03
2022-11-11T21:02:12.852Z,2.05
2022-11-11T21:04:59.107Z,2.13
2022-11-11T21:07:48.852Z,1.70
2022-11-11T21:10:35.168Z,1.95
2022-11-11T21:13:21.123Z,2.33
2022-11-11T21:16:15.744Z,2.08
2022-11-11T21:19:04.332Z,2.20
2022-11-11T21:21:50.306Z,1.90
2022-11-11T21:24:36.993Z,3.45
2022-11-11T21:27:22.953Z,2.70
2022-11-11T21:30:09.271Z,4.15
2022-11-11T21:32:55.703Z,2.42
2022-11-11T21:35:41.756Z,2.08
2022-11-11T21:38:28.004Z,2.00
2022-11-11T21:41:19.748Z,1.27
2022-11-11T21:44:07.477Z,1.63
2022-11-11T21:46:53.408Z,1.38
2022-11-11T21:49:39.363Z,1.42
2022-11-11T21:52:25.507Z,1.88
2022-11-11T21:55:11.468Z,1.58
2022-11-11T21:57:57.644Z,1.63
2022-11-11T22:00:43.698Z,1.73
2022-11-11T22:03:29.854Z,1.55
2022-11-11T22:06:16.125Z,1.40
2022-11-11T22:09:03.295Z,1.50
2022-11-11T22:11:49.227Z,1.50
2022-11-11T22:14:35.353Z,1.45
2022-11-11T22:17:21.727Z,1.38
2022-11-11T22:20:08.258Z,1.48
2022-11-11T22:22:54.177Z,1.38
2022-11-11T22:25:40.029Z,1.17
2022-11-11T22:28:26.291Z,1.20
2022-11-11T22:31:17.435Z,1.10
2022-11-11T22:34:16.548Z,1.10
2022-11-11T22:37:03.157Z,1.00
2022-11-11T22:39:49.349Z,0.90
2022-11-11T22:42:34.976Z,0.70
2022-11-11T22:45:21.058Z,1.00
2022-11-11T22:48:07.419Z,0.88
2022-11-11T22:50:53.683Z,0.90
2022-11-11T22:53:41.995Z,0.88
2022-11-11T22:56:29.005Z,0.80
2022-11-11T22:59:14.864Z,0.90
2022-11-11T23:02:00.846Z,0.70
2022-11-11T23:04:46.808Z,1.02
2022-11-11T23:07:33.089Z,0.93
2022-11-11T23:10:19.063Z,0.95
2022-11-11T23:13:05.136Z,0.98
2022-11-11T23:15:53.597Z,1.25
2022-11-11T23:18:40.612Z,1.20
2022-11-11T23:21:28.401Z,1.02
2022-11-11T23:24:14.367Z,1.17
2022-11-11T23:27:00.320Z,1.73
2022-11-11T23:29:51.145Z,1.40
2022-11-11T23:32:38.286Z,1.70
2022-11-11T23:35:24.266Z,1.30
2022-11-11T23:38:10.506Z,1.20
2022-11-11T23:40:56.966Z,1.35
2022-11-11T23:43:43.186Z,1.20
2022-11-11T23:46:29.297Z,0.80
2022-11-11T23:49:15.022Z,0.85
2022-11-11T23:52:01.089Z,0.60
2022-11-11T23:54:47.023Z,1.00
2022-11-11T23:57:32.963Z,0.50
